Alden, New York
Current Conditions -  °F | °C
As of 7:54 PM on Friday 31 Oct 2014 (Local Time) from KBUF Reporting Station
Light Rain Light Rain  
Wind Chill: 40°   Ceiling: 2300
Heat Index: 44°   Visibility: 6mi
Dew Point: 41°   Wind: 8mph
Humidity: 89%   Direction: 150°SSE
Pressure: 29.94"   Gusts: NA
Location:  42.9°N, 78.49°W
Report Text: KBUF 312354Z 15007KT 6SM -RA BR FEW015 BKN023 OVC035 07/05 A2994 RMK AO2 SLP144 P0002 60003 T00670050 10094 20067 53016
Loading
Personal Weather Stations






























Interactive Weather Map
Tropical Storm Tracking
New forecast layout! Learn more

10-Day Weather Forecast

Advertisements
Track Severe Weather on mobile